Time;durP1;ratioP1;P1;durP2;ratioP2;P2;SDS_P1;SDS_P2;PMS_P1;PMS_P2;Temp;Humidity;BMP_temperature;BMP_pressure;BME280_temperature;BME280_humidity;BME280_pressure;Samples;Min_cycle;Max_cycle;Signal;HPM_P1;HPM_P2
2023/01/18 00:01:21;;;;;;;10.07;8.00;;;4.90;99.90;;;5.00;63.91;98942.78;5096284;28;20075;-62
2023/01/18 00:03:49;;;;;;;10.30;7.43;;;4.90;99.90;;;5.01;64.06;98941.91;5096217;28;20037;-62
2023/01/18 00:06:19;;;;;;;9.30;8.27;;;4.90;99.90;;;5.13;63.70;98947.00;5095794;28;20641;-62
2023/01/18 00:08:48;;;;;;;10.82;8.25;;;5.00;99.90;;;4.94;63.77;98946.38;5095988;28;20382;-62
2023/01/18 00:11:17;;;;;;;11.10;8.67;;;4.80;99.90;;;4.84;63.84;98947.34;5095783;28;20040;-62
2023/01/18 00:13:47;;;;;;;9.77;7.93;;;4.70;99.90;;;4.70;64.21;98945.81;5095748;28;20044;-62
2023/01/18 00:16:17;;;;;;;10.23;8.30;;;4.60;99.90;;;4.76;64.56;98948.34;5095667;28;20069;-62
2023/01/18 00:18:50;;;;;;;10.57;8.30;;;4.50;99.90;;;4.82;64.55;98948.28;5077845;28;20043;-62
2023/01/18 00:21:21;;;;;;;13.40;8.63;;;4.60;99.90;;;4.64;64.63;98948.50;5095851;28;20044;-62
2023/01/18 00:23:49;;;;;;;12.23;8.10;;;4.60;99.90;;;4.64;64.84;98954.59;5095562;28;20375;-62
2023/01/18 00:26:18;;;;;;;9.03;7.80;;;4.50;99.90;;;4.66;65.25;98950.22;5095460;28;20044;-62
2023/01/18 00:28:46;;;;;;;9.50;7.50;;;4.50;99.90;;;4.55;65.56;98941.59;5095359;28;20072;-62
2023/01/18 00:31:17;;;;;;;8.80;7.33;;;4.40;99.90;;;4.36;65.97;98920.03;5095617;28;20083;-62
2023/01/18 00:33:49;;;;;;;14.03;7.93;;;4.40;99.90;;;4.41;65.80;98947.00;5095880;28;20459;-62
2023/01/18 00:36:19;;;;;;;7.10;6.40;;;4.30;99.90;;;4.40;66.14;98947.88;5095575;28;20409;-62
2023/01/18 00:38:52;;;;;;;12.00;7.30;;;4.20;99.90;;;4.36;66.07;98950.56;5095474;28;20447;-62
2023/01/18 00:41:22;;;;;;;10.63;7.50;;;4.20;99.90;;;4.46;66.54;98945.22;5095189;28;20051;-62
2023/01/18 00:43:50;;;;;;;9.33;8.30;;;4.20;99.90;;;4.19;66.69;98937.66;5095325;28;20052;-62
2023/01/18 00:46:20;;;;;;;10.87;7.60;;;4.10;99.90;;;4.37;66.83;98942.72;5095614;28;20055;-62
2023/01/18 00:48:50;;;;;;;9.55;7.63;;;4.20;99.90;;;4.39;66.71;98940.06;5095072;28;20127;-62
2023/01/18 00:51:22;;;;;;;11.30;7.47;;;4.20;99.90;;;4.25;66.86;98937.59;5095196;28;20083;-62
2023/01/18 00:53:51;;;;;;;9.53;8.07;;;4.10;99.90;;;4.24;66.97;98924.53;5095040;28;20063;-62
2023/01/18 00:56:22;;;;;;;9.20;7.63;;;4.10;99.90;;;4.37;66.98;98937.47;5094890;28;20039;-62
2023/01/18 00:58:51;;;;;;;10.65;7.68;;;4.20;99.90;;;4.23;66.96;98931.50;5094511;28;20067;-62
2023/01/18 01:01:19;;;;;;;8.80;7.00;;;4.20;99.90;;;4.52;66.90;98945.16;5094914;28;20484;-62
2023/01/18 01:06:45;;;;;;;8.90;6.93;;;4.30;99.90;;;4.50;66.33;98948.66;5095063;28;20406;-62
2023/01/18 01:09:16;;;;;;;;;;;4.30;99.90;;;4.64;66.51;98951.13;5095404;28;20397;-62
2023/01/18 01:28:18;;;;;;;9.03;7.20;;;4.50;99.90;;;4.75;65.39;98950.09;5094277;28;20044;-62
2023/01/18 01:30:47;;;;;;;10.60;7.73;;;4.60;99.90;;;4.46;64.90;98960.03;5094151;28;20060;-62
2023/01/18 01:33:17;;;;;;;8.50;7.20;;;4.40;99.90;;;4.24;64.66;98942.84;5094117;28;20054;-62
2023/01/18 01:35:45;;;;;;;7.95;6.97;;;4.20;99.90;;;4.36;64.55;98969.75;5094139;28;20451;-63
2023/01/18 01:38:15;;;;;;;8.83;7.73;;;4.20;99.90;;;4.29;64.61;98960.22;5094087;28;20104;-62
2023/01/18 01:40:43;;;;;;;8.43;7.53;;;4.20;99.90;;;4.35;64.85;98964.53;5094549;28;20047;-62
2023/01/18 01:43:13;;;;;;;8.90;7.30;;;4.20;99.90;;;4.41;64.60;98962.69;5093994;28;20044;-62
2023/01/18 01:45:42;;;;;;;11.90;8.10;;;4.20;99.90;;;4.48;64.60;98963.50;5094226;28;20044;-62
2023/01/18 01:48:11;;;;;;;9.13;7.27;;;4.30;99.90;;;4.43;64.58;98960.94;5094193;28;20537;-64
2023/01/18 01:50:40;;;;;;;9.07;6.70;;;4.30;99.90;;;4.33;64.72;98972.41;5094373;28;20073;-62
2023/01/18 01:53:09;;;;;;;9.07;7.40;;;4.20;99.90;;;4.36;64.61;98972.34;5094289;28;20401;-62
2023/01/18 01:55:41;;;;;;;10.50;7.73;;;4.30;99.90;;;4.30;64.89;98975.03;5093718;28;20048;-62
2023/01/18 01:58:14;;;;;;;8.47;7.57;;;4.20;99.90;;;4.35;64.75;98975.00;5093999;28;20062;-62
2023/01/18 02:00:43;;;;;;;8.47;6.60;;;4.20;99.90;;;4.15;64.80;98969.97;5093744;28;20048;-62
2023/01/18 02:03:17;;;;;;;7.63;6.83;;;4.00;99.90;;;4.10;64.81;98979.59;5075704;28;20093;-62
2023/01/18 02:05:53;;;;;;;7.97;6.87;;;3.90;99.90;;;4.03;65.09;98970.06;5094199;28;20223;-61
2023/01/18 02:08:22;;;;;;;10.60;7.30;;;3.80;99.90;;;3.73;65.48;98936.34;5093493;28;20050;-62
2023/01/18 02:10:52;;;;;;;10.57;7.40;;;3.90;99.90;;;3.96;65.84;98978.84;5093508;28;20050;-61
2023/01/18 02:13:23;;;;;;;10.95;7.65;;;3.80;99.90;;;4.02;65.87;98975.31;5093530;28;20054;-61
2023/01/18 02:16:01;;;;;;;12.20;8.57;;;3.90;99.90;;;3.88;66.05;98945.78;5093518;28;20485;-61
2023/01/18 02:18:38;;;;;;;10.20;7.17;;;3.90;99.90;;;4.03;66.27;98979.66;5093383;28;20051;-61
2023/01/18 02:21:14;;;;;;;11.13;7.37;;;3.90;99.90;;;4.06;66.47;98980.50;5093359;28;20044;-62
2023/01/18 02:24:22;;;;;;;11.50;8.00;;;3.90;99.90;;;3.95;66.24;98957.94;5075512;28;20052;-62
2023/01/18 02:27:06;;;;;;;9.93;7.80;;;3.90;99.90;;;4.10;66.14;98976.13;5093582;28;20405;-62
2023/01/18 02:30:07;;;;;;;10.03;7.40;;;4.00;99.90;;;3.86;66.33;98948.44;5093359;28;20067;-62
2023/01/18 02:32:53;;;;;;;8.57;7.73;;;4.00;99.90;;;4.15;66.54;98996.13;5093301;28;20127;-62
2023/01/18 02:35:33;;;;;;;8.50;7.37;;;4.00;99.90;;;4.21;66.49;98985.59;5093205;28;20548;-61
2023/01/18 02:38:10;;;;;;;9.50;7.47;;;4.10;99.90;;;4.30;66.71;98993.34;5093210;28;20044;-62
2023/01/18 02:41:03;;;;;;;10.50;7.70;;;4.10;99.90;;;4.38;66.48;98996.75;5093054;28;20098;-62
2023/01/18 02:46:32;;;;;;;12.37;7.83;;;4.30;99.90;;;4.52;66.05;99004.47;5075288;28;20056;-62
2023/01/18 02:49:08;;;;;;;7.93;7.00;;;4.40;99.90;;;4.62;65.85;99000.00;5093369;28;20560;-62
2023/01/18 02:51:37;;;;;;;14.93;8.50;;;4.50;99.90;;;4.62;65.85;99000.88;5092064;28;20467;-62
2023/01/18 02:54:09;;;;;;;8.67;7.77;;;4.50;99.90;;;4.63;65.89;99007.00;5093002;28;20044;-62
2023/01/18 02:56:41;;;;;;;15.00;8.33;;;4.50;99.90;;;4.66;65.58;99012.19;5093347;28;20051;-61
2023/01/18 02:59:14;;;;;;;9.00;7.33;;;4.50;99.90;;;4.70;65.69;99003.41;5093008;28;20040;-62
2023/01/18 03:01:49;;;;;;;9.77;7.77;;;4.60;99.90;;;4.73;65.47;98999.00;5092934;28;20044;-61
2023/01/18 03:04:22;;;;;;;9.43;7.97;;;4.60;99.90;;;4.84;65.66;99001.50;5093233;28;20446;-62
2023/01/18 03:06:56;;;;;;;10.10;7.30;;;4.70;99.90;;;3.96;65.33;98870.78;5092936;28;20040;-62
2023/01/18 03:09:26;;;;;;;11.00;7.70;;;4.60;99.90;;;4.48;65.46;98964.38;5093222;28;20044;-62
2023/01/18 03:12:01;;;;;;;9.02;7.72;;;4.60;99.90;;;4.78;65.31;98998.97;5093234;28;20094;-63
2023/01/18 03:14:40;;;;;;;11.70;7.83;;;4.60;99.90;;;4.85;65.70;99000.59;5092905;28;20055;-62
2023/01/18 03:17:19;;;;;;;12.37;7.90;;;4.70;99.90;;;4.87;65.52;99011.94;5093117;28;20504;-62
2023/01/18 03:20:06;;;;;;;9.80;7.80;;;4.70;99.90;;;4.86;65.56;99002.38;5092818;28;20048;-61
2023/01/18 03:25:29;;;;;;;9.20;7.47;;;4.80;99.90;;;4.80;66.02;98998.03;5096608;28;20485;-62
2023/01/18 03:33:45;;;;;;;10.17;7.23;;;4.80;99.90;;;5.04;65.78;99009.97;5096525;28;20044;-62
2023/01/18 03:36:21;;;;;;;8.70;7.17;;;4.90;99.90;;;5.10;65.56;99007.28;5078605;28;20547;-62
2023/01/18 03:38:54;;;;;;;8.30;7.40;;;5.00;99.90;;;5.16;65.33;99013.31;5096456;28;20374;-61
2023/01/18 03:41:27;;;;;;;10.20;7.50;;;5.10;99.90;;;4.67;65.21;98931.00;5096430;28;20048;-62
2023/01/18 03:44:00;;;;;;;12.07;7.13;;;5.00;99.90;;;5.20;65.61;99007.16;5096293;28;20072;-62
2023/01/18 03:46:32;;;;;;;10.40;7.37;;;5.10;99.90;;;5.02;65.15;98986.44;5096323;28;20119;-62
2023/01/18 03:49:02;;;;;;;8.10;7.30;;;5.10;99.90;;;5.15;65.33;98995.84;5096278;28;20044;-62
2023/01/18 03:51:47;;;;;;;7.80;6.50;;;5.10;99.90;;;5.20;65.37;99011.53;5096164;28;20450;-61
2023/01/18 03:54:22;;;;;;;8.17;7.07;;;5.20;99.90;;;4.97;65.68;98977.78;5096505;28;20040;-61
2023/01/18 03:56:57;;;;;;;8.83;7.23;;;5.10;99.90;;;5.16;65.46;99015.94;5096102;28;20425;-62
2023/01/18 03:59:33;;;;;;;10.23;7.23;;;5.10;99.90;;;5.00;65.48;99009.16;5096058;28;20474;-62
2023/01/18 04:02:02;;;;;;;9.83;6.93;;;5.10;99.90;;;5.08;65.59;99024.78;5096225;28;20116;-62
2023/01/18 04:04:32;;;;;;;10.40;6.63;;;5.00;99.90;;;5.01;65.92;99015.25;5095871;28;20470;-61
2023/01/18 04:07:00;;;;;;;8.73;7.70;;;5.00;99.90;;;4.99;65.98;99027.50;5077971;28;20106;-62
2023/01/18 04:09:29;;;;;;;8.73;6.70;;;4.90;99.90;;;4.88;65.55;99024.16;5077914;28;20048;-62
2023/01/18 04:11:57;;;;;;;7.30;6.60;;;4.80;99.90;;;4.92;66.14;99029.31;5094733;28;20573;-62
2023/01/18 04:14:25;;;;;;;7.93;6.80;;;4.80;99.90;;;5.02;66.02;99033.56;5095747;28;20397;-62
2023/01/18 04:16:54;;;;;;;8.50;6.43;;;4.80;99.90;;;5.09;65.79;99026.53;5096193;28;20509;-63
2023/01/18 04:19:22;;;;;;;9.13;6.43;;;4.90;99.90;;;4.99;65.35;99032.75;5095626;28;20043;-62
2023/01/18 04:21:52;;;;;;;10.50;7.07;;;4.90;99.90;;;4.95;65.76;99033.66;5095796;28;20139;-62
2023/01/18 04:24:20;;;;;;;7.07;6.30;;;4.90;99.90;;;4.92;66.00;99026.69;5096007;28;20044;-62
2023/01/18 04:26:48;;;;;;;7.73;6.43;;;4.80;99.90;;;4.99;65.90;99031.00;5095469;28;20048;-62
2023/01/18 04:29:17;;;;;;;8.63;6.80;;;4.90;99.90;;;5.02;66.15;99032.69;5095406;28;20048;-62
2023/01/18 04:31:46;;;;;;;8.53;6.57;;;4.90;99.90;;;4.88;66.48;99032.00;5076713;28;20098;-62
2023/01/18 04:34:14;;;;;;;8.53;6.80;;;4.80;99.90;;;4.61;66.19;99033.16;5076911;28;20056;-61
2023/01/18 04:36:43;;;;;;;7.87;7.07;;;4.50;99.90;;;4.46;66.77;99034.19;5095526;28;20371;-61
2023/01/18 04:39:13;;;;;;;7.67;6.97;;;4.30;99.90;;;4.59;67.16;99037.53;5094208;28;20482;-62
2023/01/18 04:41:42;;;;;;;7.75;6.97;;;4.40;99.90;;;4.27;67.59;98993.38;5095220;28;20044;-62
2023/01/18 04:44:11;;;;;;;7.20;6.10;;;4.40;99.90;;;4.40;67.35;99026.41;5095408;28;20039;-62
2023/01/18 04:46:40;;;;;;;9.55;6.30;;;4.30;99.90;;;4.28;67.94;99042.19;5095390;28;20371;-62
2023/01/18 04:49:14;;;;;;;7.60;6.80;;;4.20;99.90;;;4.20;68.62;99041.41;5095023;28;20044;-62
2023/01/18 04:51:43;;;;;;;9.07;6.53;;;4.00;99.90;;;4.25;68.44;99050.09;5095147;28;20493;-62
2023/01/18 04:54:17;;;;;;;8.43;6.80;;;4.00;99.90;;;4.11;68.42;99044.09;5095012;28;20517;-63
2023/01/18 04:56:45;;;;;;;8.87;7.10;;;3.90;99.90;;;4.08;69.07;99049.38;5094960;28;20313;-62
2023/01/18 04:59:15;;;;;;;10.10;7.10;;;3.90;99.90;;;3.82;69.17;99008.59;5095462;28;20048;-61
2023/01/18 05:01:44;;;;;;;10.40;7.28;;;3.90;99.90;;;2.84;69.14;98843.00;5077064;28;20093;-62
2023/01/18 05:04:13;;;;;;;11.67;7.13;;;3.80;99.90;;;3.97;69.77;99043.34;5076780;28;20044;-62
2023/01/18 05:06:42;;;;;;;8.23;7.03;;;3.80;99.90;;;3.91;70.15;99043.38;5094751;28;20047;-62
2023/01/18 05:09:13;;;;;;;9.50;6.93;;;3.80;99.90;;;3.91;70.36;99053.84;5094620;28;20553;-61
2023/01/18 05:11:42;;;;;;;9.93;6.90;;;3.80;99.90;;;3.96;70.38;99051.19;5094630;28;20036;-62
2023/01/18 05:14:10;;;;;;;8.93;6.90;;;3.80;99.90;;;4.00;70.67;99040.72;5095095;28;20044;-62
2023/01/18 05:16:39;;;;;;;9.07;7.30;;;3.90;99.90;;;4.08;70.69;99044.13;5094830;28;20102;-62
2023/01/18 05:19:07;;;;;;;10.07;7.57;;;4.00;99.90;;;4.30;70.59;99050.03;5094471;28;20047;-61
2023/01/18 05:21:36;;;;;;;8.83;7.27;;;4.10;99.90;;;4.39;70.19;99063.91;5094376;28;20068;-62
2023/01/18 05:24:04;;;;;;;8.67;7.67;;;4.20;99.90;;;4.49;70.46;99062.94;5076408;28;20044;-62
2023/01/18 05:26:35;;;;;;;8.80;7.87;;;4.30;99.90;;;4.53;70.17;99066.38;5094248;28;20501;-62
2023/01/18 05:29:03;;;;;;;12.75;8.27;;;4.40;99.90;;;3.90;69.96;98981.53;5094390;28;20063;-62
2023/01/18 05:31:32;;;;;;;8.97;6.97;;;4.50;99.90;;;4.65;70.21;99065.41;5094585;28;20079;-62
2023/01/18 05:34:00;;;;;;;9.37;7.03;;;4.50;99.90;;;4.65;70.04;99060.16;5094404;28;20066;-62
2023/01/18 05:36:28;;;;;;;14.97;7.43;;;4.50;99.90;;;4.73;70.24;99071.44;5094136;28;20520;-61
2023/01/18 05:38:57;;;;;;;8.80;7.60;;;4.60;99.90;;;4.67;70.03;99047.94;5093983;28;20075;-62
2023/01/18 05:41:25;;;;;;;10.23;7.50;;;4.70;99.90;;;4.89;69.67;99076.50;5093899;28;20028;-64
2023/01/18 05:43:55;;;;;;;8.63;6.90;;;4.80;99.90;;;4.93;69.51;99086.06;5075594;28;20048;-62
2023/01/18 05:46:23;;;;;;;7.85;7.03;;;4.80;99.90;;;4.82;69.65;99102.78;5093929;28;20038;-62
2023/01/18 05:48:56;;;;;;;7.33;6.57;;;4.80;99.90;;;4.89;69.56;99068.66;5093886;28;20397;-62
2023/01/18 05:51:25;;;;;;;11.00;7.03;;;4.90;99.90;;;5.05;69.50;99074.59;5093850;28;20040;-62
2023/01/18 05:53:53;;;;;;;10.03;6.93;;;4.90;99.90;;;5.02;69.49;99085.09;5094111;28;20043;-62
2023/01/18 05:56:21;;;;;;;7.30;6.60;;;4.90;99.90;;;5.05;69.38;99090.31;5093793;28;20385;-62
2023/01/18 05:58:50;;;;;;;8.50;6.07;;;4.90;99.90;;;4.98;69.46;99089.50;5093916;28;20066;-62
2023/01/18 06:01:19;;;;;;;7.77;6.00;;;4.80;99.90;;;4.96;69.30;99090.41;5093634;28;20098;-61
2023/01/18 06:03:48;;;;;;;7.32;6.47;;;4.80;99.90;;;4.96;69.19;99093.88;5094062;28;20501;-62
2023/01/18 06:06:16;;;;;;;9.03;6.50;;;4.80;99.90;;;5.00;69.43;99097.34;5093866;28;20040;-61
2023/01/18 06:08:44;;;;;;;8.23;6.83;;;4.80;99.90;;;5.00;69.03;99102.56;5093580;28;20072;-61
2023/01/18 06:11:13;;;;;;;8.60;6.63;;;4.80;99.90;;;4.98;69.08;99099.09;5093585;28;20044;-62
2023/01/18 06:13:41;;;;;;;7.47;6.67;;;4.80;99.90;;;4.99;69.47;99106.97;5094006;28;20044;-62
2023/01/18 06:16:10;;;;;;;11.77;8.77;;;4.80;99.90;;;5.04;69.30;99104.28;5093411;28;20115;-61
2023/01/18 06:18:40;;;;;;;11.17;6.97;;;4.80;99.90;;;4.91;69.30;99087.84;5093904;28;20071;-62
2023/01/18 06:21:10;;;;;;;7.50;6.30;;;4.90;99.90;;;4.73;69.46;99077.56;5093427;28;20190;-62
2023/01/18 06:23:38;;;;;;;7.63;5.60;;;4.80;99.90;;;4.91;69.94;99116.66;5093311;28;20130;-63
2023/01/18 06:26:07;;;;;;;9.30;6.33;;;4.80;99.90;;;4.83;70.53;99112.34;5093257;28;20285;-61
2023/01/18 06:28:35;;;;;;;7.90;5.93;;;4.70;99.90;;;4.88;70.25;99113.19;5093242;28;20456;-62
2023/01/18 06:31:03;;;;;;;9.27;6.33;;;4.70;99.90;;;4.57;70.52;99068.09;5093352;28;20055;-62
2023/01/18 06:33:32;;;;;;;9.07;5.70;;;4.60;99.90;;;4.84;70.50;99114.13;5093165;28;20047;-62
2023/01/18 06:36:01;;;;;;;10.67;5.83;;;4.70;99.90;;;4.65;70.31;99083.72;5093132;28;20425;-62
2023/01/18 06:38:30;;;;;;;6.10;5.32;;;4.70;99.90;;;4.86;70.62;99121.06;5093142;28;20075;-62
2023/01/18 06:40:59;;;;;;;10.00;5.93;;;4.70;99.90;;;5.03;70.37;99134.00;5093615;28;20412;-62
2023/01/18 06:43:28;;;;;;;9.60;5.13;;;4.80;99.90;;;5.09;69.92;99128.69;5092974;28;20039;-62
2023/01/18 06:45:57;;;;;;;6.53;5.80;;;4.90;99.90;;;5.17;70.12;99126.84;5093325;28;20036;-62
2023/01/18 06:48:27;;;;;;;9.57;6.13;;;5.00;99.90;;;5.18;69.71;99133.81;5093254;28;20109;-62
2023/01/18 06:50:57;;;;;;;10.95;6.60;;;5.00;99.90;;;5.16;69.82;99130.34;5093010;28;20123;-62
2023/01/18 06:53:27;;;;;;;10.05;6.80;;;5.00;99.90;;;5.14;69.96;99127.75;5093276;28;20059;-63
2023/01/18 06:55:58;;;;;;;12.13;7.20;;;5.00;99.90;;;5.01;69.92;99110.44;5094711;28;20118;-63
2023/01/18 06:58:31;;;;;;;8.93;6.43;;;5.00;99.90;;;5.18;69.84;99141.69;5097534;28;20048;-62
2023/01/18 07:01:00;;;;;;;11.30;6.53;;;5.00;99.90;;;5.12;69.61;99131.28;5097126;28;20050;-62
2023/01/18 07:03:31;;;;;;;10.80;6.37;;;5.00;99.90;;;5.11;69.90;99129.56;5096867;28;20459;-62
2023/01/18 07:06:02;;;;;;;9.05;6.50;;;5.00;99.90;;;5.12;69.75;99133.88;5095761;28;20052;-62
2023/01/18 07:08:33;;;;;;;8.77;6.57;;;5.10;99.90;;;5.08;69.97;99133.06;5097238;28;20385;-62
2023/01/18 07:11:06;;;;;;;13.73;7.23;;;5.00;99.90;;;5.17;69.74;99159.16;5096992;28;20474;-63
2023/01/18 07:13:35;;;;;;;10.03;7.20;;;5.00;99.90;;;5.11;69.49;99153.13;5097193;28;20097;-62
2023/01/18 07:16:03;;;;;;;11.80;7.07;;;5.00;99.90;;;4.83;69.55;99113.25;5097255;28;20036;-63
2023/01/18 07:18:31;;;;;;;7.43;5.77;;;4.90;99.90;;;5.11;69.54;99159.22;5096943;28;20131;-62
2023/01/18 07:21:02;;;;;;;7.83;6.10;;;4.90;99.90;;;5.08;69.68;99164.50;5096580;28;20507;-62
2023/01/18 07:23:34;;;;;;;10.50;6.23;;;4.90;99.90;;;5.13;70.12;99178.41;5096699;28;20123;-61
2023/01/18 07:26:04;;;;;;;7.13;6.10;;;4.90;99.90;;;5.14;70.32;99176.66;5096603;28;20046;-61
2023/01/18 07:28:33;;;;;;;8.63;6.37;;;4.90;99.90;;;5.10;70.69;99188.06;5096513;28;20055;-61
2023/01/18 07:31:03;;;;;;;8.90;6.47;;;5.00;99.90;;;5.09;71.04;99186.34;5096608;28;20081;-61
2023/01/18 07:33:32;;;;;;;10.85;6.55;;;4.90;99.90;;;5.12;71.20;99196.78;5096418;28;20127;-61
2023/01/18 07:36:00;;;;;;;7.17;6.07;;;5.00;99.90;;;5.06;71.66;99186.34;5096422;28;20082;-61
2023/01/18 07:38:29;;;;;;;10.80;6.43;;;4.90;99.90;;;5.03;71.68;99189.84;5096870;28;20073;-62
2023/01/18 07:41:02;;;;;;;9.20;6.30;;;4.90;99.90;;;4.95;71.88;99193.44;5096308;28;20047;-61
2023/01/18 07:43:31;;;;;;;13.50;5.97;;;4.80;99.90;;;4.79;71.99;99176.13;5096642;28;20428;-61
2023/01/18 07:46:02;;;;;;;12.80;5.90;;;4.80;99.90;;;4.70;72.37;99171.84;5096385;28;20044;-62
2023/01/18 07:48:32;;;;;;;11.40;6.30;;;4.70;99.90;;;4.83;72.49;99201.41;5096541;28;20052;-61
2023/01/18 07:51:02;;;;;;;9.20;6.83;;;4.70;99.90;;;4.75;72.85;99203.22;5096035;28;20080;-61
2023/01/18 07:53:33;;;;;;;11.43;6.30;;;4.60;99.90;;;4.77;73.04;99209.31;5096167;28;20048;-61
2023/01/18 07:56:06;;;;;;;8.70;6.77;;;4.60;99.90;;;4.76;73.25;99210.19;5096649;28;20047;-61
2023/01/18 07:58:35;;;;;;;11.57;7.43;;;4.60;99.90;;;4.76;73.68;99216.31;5096107;28;20478;-62
2023/01/18 08:01:06;;;;;;;7.27;6.37;;;4.60;99.90;;;4.56;73.52;99174.56;5078001;28;20127;-61
2023/01/18 08:03:35;;;;;;;;;;;4.60;99.90;;;4.74;73.55;99228.53;5096734;28;20040;-61
2023/01/18 08:06:06;;;;;;;12.77;7.60;;;4.60;99.90;;;4.62;73.98;99215.53;5096081;28;20022;-61
2023/01/18 08:08:36;;;;;;;11.13;8.10;;;4.50;99.90;;;4.57;74.70;99215.56;5077832;28;20048;-61
2023/01/18 08:11:07;;;;;;;12.90;8.10;;;4.50;99.90;;;4.59;75.38;99220.78;5096015;28;20043;-61
2023/01/18 08:13:36;;;;;;;10.43;7.67;;;4.50;99.90;;;4.47;75.56;99216.50;5096033;28;20482;-63
2023/01/18 08:16:08;;;;;;;12.83;8.30;;;4.40;99.90;;;4.54;76.35;99226.06;5095919;28;20036;-61
2023/01/18 08:18:36;;;;;;;11.27;8.83;;;4.40;99.90;;;4.37;76.53;99214.84;5095604;28;20044;-62
2023/01/18 08:21:06;;;;;;;20.07;9.90;;;4.40;99.90;;;4.53;77.48;99232.16;5096010;28;20044;-61
2023/01/18 08:23:34;;;;;;;14.13;9.23;;;4.40;99.90;;;4.69;77.76;99242.53;5095527;28;20130;-61
2023/01/18 08:26:05;;;;;;;12.70;9.13;;;4.50;99.90;;;4.84;78.07;99242.44;5095352;28;20308;-61
2023/01/18 08:28:34;;;;;;;11.40;9.43;;;4.70;99.90;;;5.06;77.76;99249.22;5095652;28;20109;-62
2023/01/18 08:31:10;;;;;;;12.67;9.30;;;4.90;99.90;;;5.32;77.38;99244.63;5077128;28;20417;-61
2023/01/18 08:33:41;;;;;;;12.20;9.27;;;5.20;99.90;;;4.88;76.64;99121.91;5095403;28;20036;-61
2023/01/18 08:36:11;;;;;;;14.75;9.77;;;5.50;99.90;;;5.55;76.03;99240.03;5077503;28;20386;-61
2023/01/18 08:38:40;;;;;;;12.73;9.55;;;5.70;99.90;;;6.09;75.24;99256.91;5095645;28;20079;-61
2023/01/18 08:41:09;;;;;;;11.93;9.30;;;6.00;99.90;;;6.16;74.61;99234.94;5095090;28;20565;-62
2023/01/18 08:43:38;;;;;;;10.32;9.23;;;6.20;99.90;;;6.70;73.77;99264.78;5095088;28;20057;-62
2023/01/18 08:46:06;;;;;;;10.60;8.95;;;6.50;99.90;;;6.97;72.67;99275.75;5095279;28;20044;-61
2023/01/18 08:48:35;;;;;;;13.13;9.20;;;6.80;99.90;;;7.31;71.97;99273.47;5095297;28;20059;-62
2023/01/18 08:51:04;;;;;;;11.70;9.13;;;7.10;99.90;;;7.70;70.65;99285.03;5095480;28;20081;-62
2023/01/18 08:53:33;;;;;;;12.02;8.70;;;7.50;99.90;;;8.06;69.56;99289.59;5094940;28;20040;-62
2023/01/18 08:56:05;;;;;;;10.77;8.30;;;7.90;99.90;;;8.37;68.32;99295.13;5094879;28;20040;-62
2023/01/18 08:58:35;;;;;;;13.65;8.27;;;8.20;99.90;;;8.67;67.29;99290.06;5094887;28;20105;-63
2023/01/18 09:01:06;;;;;;;9.65;8.05;;;8.50;99.90;;;8.88;65.72;99299.28;5095091;28;20048;-62
2023/01/18 09:03:35;;;;;;;11.88;8.07;;;8.70;99.90;;;8.99;64.84;99305.16;5094866;28;20040;-62
2023/01/18 09:06:08;;;;;;;10.32;7.65;;;8.90;99.90;;;9.03;64.53;99309.47;5094587;28;20439;-61
2023/01/18 09:08:40;;;;;;;11.27;7.80;;;8.80;99.90;;;8.96;63.79;99308.72;5076781;28;20052;-62
2023/01/18 09:11:10;;;;;;;13.85;7.72;;;8.80;99.90;;;8.70;64.07;99290.00;5094862;28;20067;-62
2023/01/18 09:13:40;;;;;;;10.98;7.65;;;8.70;99.90;;;8.92;64.80;99304.44;5094872;28;20409;-61
2023/01/18 09:16:26;;;;;;;8.95;7.60;;;8.70;99.90;;;9.02;64.52;99287.50;5094576;28;20101;-62
2023/01/18 09:18:55;;;;;;;14.48;8.00;;;9.00;99.90;;;9.33;63.48;99306.06;5093718;28;20123;-61
2023/01/18 09:21:24;;;;;;;12.10;7.88;;;9.10;99.90;;;9.58;63.48;99317.75;5094403;28;20040;-62
2023/01/18 09:23:52;;;;;;;10.93;7.38;;;9.40;99.90;;;9.93;62.51;99319.47;5094334;28;20032;-62
2023/01/18 09:26:21;;;;;;;8.82;6.78;;;9.70;99.90;;;10.17;62.26;99316.22;5094192;28;20071;-62
2023/01/18 09:28:54;;;;;;;10.20;6.63;;;10.00;99.90;;;10.53;61.16;99319.59;5094499;28;20067;-62
2023/01/18 09:31:25;;;;;;;11.55;7.13;;;10.30;99.90;;;10.85;60.42;99351.25;5094086;28;20067;-62
2023/01/18 09:33:55;;;;;;;11.85;7.30;;;10.70;99.90;;;11.07;59.68;99328.50;5094477;28;20471;-62
2023/01/18 09:36:41;;;;;;;15.23;6.80;;;10.90;99.90;;;11.31;58.29;99340.09;5094197;28;20048;-62
2023/01/18 09:39:09;;;;;;;13.73;6.70;;;11.10;99.90;;;11.52;57.48;99329.69;5094013;28;20052;-62
2023/01/18 09:41:42;;;;;;;14.82;6.47;;;11.40;99.90;;;11.44;56.22;99334.34;5094084;28;20040;-63
2023/01/18 09:44:22;;;;;;;10.43;6.65;;;11.40;99.90;;;10.96;56.84;99335.91;5094034;28;20098;-62
2023/01/18 09:46:55;;;;;;;11.07;6.35;;;10.90;99.90;;;10.55;57.71;99338.94;5094186;28;20119;-62
2023/01/18 09:49:32;;;;;;;10.68;6.05;;;10.50;99.90;;;10.10;58.42;99317.31;5094091;28;20052;-62
2023/01/18 09:52:22;;;;;;;14.20;6.68;;;10.00;99.90;;;9.58;59.48;99299.28;5093689;28;20043;-61
2023/01/18 09:54:58;;;;;;;8.30;6.05;;;9.60;99.90;;;9.49;59.96;99325.91;5093744;28;20040;-62
2023/01/18 09:57:43;;;;;;;8.60;6.18;;;9.30;99.90;;;9.16;60.66;99320.56;5093739;28;20075;-62
2023/01/18 10:00:22;;;;;;;10.20;6.28;;;9.00;99.90;;;8.97;61.76;99325.41;5075749;28;20043;-61
2023/01/18 10:02:54;;;;;;;10.13;6.63;;;8.80;99.90;;;9.28;61.86;99329.09;5093889;28;20436;-62
2023/01/18 10:05:28;;;;;;;10.98;6.20;;;9.00;99.90;;;9.19;61.70;99331.06;5093847;28;20078;-61
2023/01/18 10:08:02;;;;;;;9.38;6.97;;;9.00;99.90;;;9.21;62.06;99314.31;5093530;28;20051;-62
2023/01/18 10:10:37;;;;;;;10.68;6.40;;;9.10;99.90;;;9.54;61.64;99339.00;5094013;28;20055;-62
2023/01/18 10:13:37;;;;;;;11.32;6.38;;;9.30;99.90;;;9.83;61.35;99345.25;5093367;28;20036;-62
2023/01/18 10:16:14;;;;;;;14.98;6.82;;;9.50;99.90;;;10.04;60.28;99344.69;5075653;28;20044;-62
2023/01/18 10:18:46;;;;;;;8.60;6.35;;;9.80;99.90;;;10.31;59.98;99358.97;5093477;28;20070;-62
2023/01/18 10:21:23;;;;;;;12.20;6.85;;;10.10;99.90;;;10.41;59.46;99330.53;5093591;28;20051;-62
2023/01/18 10:24:12;;;;;;;11.18;6.53;;;10.30;99.90;;;10.62;59.04;99344.00;5093387;28;20119;-62
2023/01/18 10:26:43;;;;;;;7.40;6.40;;;10.40;99.90;;;10.68;58.44;99354.34;5093424;28;20044;-62
2023/01/18 10:29:17;;;;;;;11.18;6.80;;;10.40;99.90;;;10.68;58.14;99358.81;5093273;28;20044;-62
2023/01/18 10:31:56;;;;;;;9.23;6.72;;;10.50;99.90;;;10.44;58.63;99356.84;5093658;28;20052;-62
2023/01/18 10:34:32;;;;;;;10.07;6.95;;;10.20;99.90;;;10.42;58.81;99334.88;5093215;28;20047;-62
2023/01/18 10:37:13;;;;;;;7.78;6.40;;;10.30;99.90;;;10.65;58.84;99365.03;5093409;28;20055;-62
2023/01/18 10:39:47;;;;;;;11.15;6.70;;;10.30;99.90;;;10.76;58.31;99365.59;5093120;28;20052;-62
2023/01/18 10:42:22;;;;;;;11.25;6.25;;;10.50;99.90;;;10.64;57.88;99359.81;5093308;28;20048;-62
2023/01/18 10:44:51;;;;;;;12.10;7.13;;;10.40;99.90;;;10.45;58.19;99335.66;5093577;28;20047;-62
2023/01/18 10:47:21;;;;;;;10.18;6.75;;;10.40;99.90;;;10.55;58.21;99366.22;5092986;28;20123;-62
2023/01/18 10:49:50;;;;;;;10.80;7.18;;;10.30;99.90;;;10.54;58.26;99342.47;5093434;28;20134;-61
2023/01/18 10:52:28;;;;;;;12.23;7.77;;;10.40;99.90;;;10.69;58.15;99339.38;5093059;28;20075;-62
2023/01/18 10:55:00;;;;;;;12.98;7.68;;;10.70;99.90;;;10.88;57.44;99370.53;5092985;28;20336;-63
2023/01/18 10:57:32;;;;;;;11.07;7.18;;;10.70;99.90;;;11.03;57.89;99369.22;5074948;28;20136;-62
2023/01/18 11:00:01;;;;;;;9.60;6.82;;;10.80;99.90;;;10.98;57.23;99378.16;5093208;28;20067;-61
2023/01/18 11:02:35;;;;;;;11.85;6.47;;;10.80;99.90;;;10.80;57.26;99384.91;5074684;28;20113;-61
2023/01/18 11:05:22;;;;;;;10.10;7.47;;;10.60;99.90;;;10.10;57.83;99282.09;5093197;28;20126;-61
2023/01/18 11:08:11;;;;;;;7.97;6.50;;;10.40;99.90;;;10.52;58.04;99358.38;5092774;28;20543;-62
2023/01/18 11:10:40;;;;;;;10.45;6.93;;;10.40;99.90;;;10.74;58.35;99377.97;5093414;28;20076;-62
2023/01/18 11:13:27;;;;;;;12.35;6.63;;;10.40;99.90;;;10.60;58.71;99366.09;5092727;28;20404;-62
2023/01/18 11:16:12;;;;;;;9.77;7.35;;;10.40;99.90;;;10.16;58.55;99354.13;5092803;28;20102;-62
2023/01/18 11:19:01;;;;;;;8.35;6.80;;;10.20;99.90;;;10.40;58.82;99369.28;5093141;28;20051;-61